sensor_id;sensor_type;location;lat;lon;timestamp;temperature;humidity
18147;DHT22;9199;48.832;9.182;2023-03-13T00:01:21;7.70;99.90
18147;DHT22;9199;48.832;9.182;2023-03-13T00:03:48;7.70;99.90
18147;DHT22;9199;48.832;9.182;2023-03-13T00:06:15;7.60;99.90
18147;DHT22;9199;48.832;9.182;2023-03-13T00:08:44;7.60;99.90
18147;DHT22;9199;48.832;9.182;2023-03-13T00:11:12;7.60;99.90
18147;DHT22;9199;48.832;9.182;2023-03-13T00:13:39;7.60;99.90
18147;DHT22;9199;48.832;9.182;2023-03-13T00:16:08;7.60;99.90
18147;DHT22;9199;48.832;9.182;2023-03-13T00:18:35;7.60;99.90
18147;DHT22;9199;48.832;9.182;2023-03-13T00:21:04;7.60;99.90
18147;DHT22;9199;48.832;9.182;2023-03-13T00:23:32;7.60;99.90
18147;DHT22;9199;48.832;9.182;2023-03-13T00:26:02;7.60;99.90
18147;DHT22;9199;48.832;9.182;2023-03-13T00:28:30;7.60;99.90
18147;DHT22;9199;48.832;9.182;2023-03-13T00:31:01;7.60;99.90
18147;DHT22;9199;48.832;9.182;2023-03-13T00:33:27;7.60;99.90
18147;DHT22;9199;48.832;9.182;2023-03-13T00:35:57;7.60;99.90
18147;DHT22;9199;48.832;9.182;2023-03-13T00:38:24;7.60;99.90
18147;DHT22;9199;48.832;9.182;2023-03-13T00:40:59;7.70;99.90
18147;DHT22;9199;48.832;9.182;2023-03-13T00:43:26;7.70;99.90
18147;DHT22;9199;48.832;9.182;2023-03-13T00:45:53;7.70;99.90
18147;DHT22;9199;48.832;9.182;2023-03-13T00:48:20;7.70;99.90
18147;DHT22;9199;48.832;9.182;2023-03-13T00:50:47;7.70;99.90
18147;DHT22;9199;48.832;9.182;2023-03-13T00:53:14;7.70;99.90
18147;DHT22;9199;48.832;9.182;2023-03-13T00:55:50;7.70;99.90
18147;DHT22;9199;48.832;9.182;2023-03-13T00:58:19;7.70;99.90
18147;DHT22;9199;48.832;9.182;2023-03-13T01:00:45;7.80;99.90
18147;DHT22;9199;48.832;9.182;2023-03-13T01:03:12;7.70;99.90
18147;DHT22;9199;48.832;9.182;2023-03-13T01:05:39;7.80;99.90
18147;DHT22;9199;48.832;9.182;2023-03-13T01:08:06;7.80;99.90
18147;DHT22;9199;48.832;9.182;2023-03-13T01:10:33;7.80;99.90
18147;DHT22;9199;48.832;9.182;2023-03-13T01:13:00;7.80;99.90
18147;DHT22;9199;48.832;9.182;2023-03-13T01:15:33;7.90;99.90
18147;DHT22;9199;48.832;9.182;2023-03-13T01:18:00;7.90;99.90
18147;DHT22;9199;48.832;9.182;2023-03-13T01:20:28;7.90;99.90
18147;DHT22;9199;48.832;9.182;2023-03-13T01:22:55;8.00;99.90
18147;DHT22;9199;48.832;9.182;2023-03-13T01:25:22;8.00;99.90
18147;DHT22;9199;48.832;9.182;2023-03-13T01:27:48;8.00;99.90
18147;DHT22;9199;48.832;9.182;2023-03-13T01:30:15;8.00;99.90
18147;DHT22;9199;48.832;9.182;2023-03-13T01:32:44;8.00;99.90
18147;DHT22;9199;48.832;9.182;2023-03-13T01:35:10;8.10;99.90
18147;DHT22;9199;48.832;9.182;2023-03-13T01:37:37;8.10;99.90
18147;DHT22;9199;48.832;9.182;2023-03-13T01:40:05;8.20;99.90
18147;DHT22;9199;48.832;9.182;2023-03-13T01:42:50;8.20;99.90
18147;DHT22;9199;48.832;9.182;2023-03-13T01:45:50;8.30;99.90
18147;DHT22;9199;48.832;9.182;2023-03-13T01:48:22;8.40;99.90
18147;DHT22;9199;48.832;9.182;2023-03-13T01:50:52;8.40;99.90
18147;DHT22;9199;48.832;9.182;2023-03-13T01:53:19;8.40;99.90
18147;DHT22;9199;48.832;9.182;2023-03-13T01:55:46;8.40;99.90
18147;DHT22;9199;48.832;9.182;2023-03-13T01:58:13;8.40;99.90
18147;DHT22;9199;48.832;9.182;2023-03-13T02:00:41;8.50;99.90
18147;DHT22;9199;48.832;9.182;2023-03-13T02:03:11;8.50;99.90
18147;DHT22;9199;48.832;9.182;2023-03-13T02:05:41;8.60;99.90
18147;DHT22;9199;48.832;9.182;2023-03-13T02:08:12;8.70;99.90
18147;DHT22;9199;48.832;9.182;2023-03-13T02:10:49;8.70;99.90
18147;DHT22;9199;48.832;9.182;2023-03-13T02:13:17;8.80;99.90
18147;DHT22;9199;48.832;9.182;2023-03-13T02:15:44;8.80;99.90
18147;DHT22;9199;48.832;9.182;2023-03-13T02:18:11;9.00;99.90
18147;DHT22;9199;48.832;9.182;2023-03-13T02:20:40;9.00;99.90
18147;DHT22;9199;48.832;9.182;2023-03-13T02:23:12;9.10;99.90
18147;DHT22;9199;48.832;9.182;2023-03-13T02:25:44;9.10;99.90
18147;DHT22;9199;48.832;9.182;2023-03-13T02:28:15;9.10;99.90
18147;DHT22;9199;48.832;9.182;2023-03-13T02:30:43;9.10;99.90
18147;DHT22;9199;48.832;9.182;2023-03-13T02:33:11;9.10;99.90
18147;DHT22;9199;48.832;9.182;2023-03-13T02:35:38;9.20;99.90
18147;DHT22;9199;48.832;9.182;2023-03-13T02:38:10;9.30;99.90
18147;DHT22;9199;48.832;9.182;2023-03-13T02:40:42;9.40;99.90
18147;DHT22;9199;48.832;9.182;2023-03-13T02:43:14;9.50;99.90
18147;DHT22;9199;48.832;9.182;2023-03-13T02:45:44;9.50;99.90
18147;DHT22;9199;48.832;9.182;2023-03-13T02:48:30;9.60;99.90
18147;DHT22;9199;48.832;9.182;2023-03-13T02:50:57;9.60;99.90
18147;DHT22;9199;48.832;9.182;2023-03-13T02:53:24;9.70;99.90
18147;DHT22;9199;48.832;9.182;2023-03-13T02:55:54;9.80;99.90
18147;DHT22;9199;48.832;9.182;2023-03-13T02:58:22;9.80;99.90
18147;DHT22;9199;48.832;9.182;2023-03-13T03:00:49;9.80;99.90
18147;DHT22;9199;48.832;9.182;2023-03-13T03:03:16;9.90;99.90
18147;DHT22;9199;48.832;9.182;2023-03-13T03:05:43;9.90;99.90
18147;DHT22;9199;48.832;9.182;2023-03-13T03:08:10;9.90;99.90
18147;DHT22;9199;48.832;9.182;2023-03-13T03:10:37;10.00;99.90
18147;DHT22;9199;48.832;9.182;2023-03-13T03:13:05;10.00;99.90
18147;DHT22;9199;48.832;9.182;2023-03-13T03:15:31;10.00;99.90
18147;DHT22;9199;48.832;9.182;2023-03-13T03:17:58;10.00;99.90
18147;DHT22;9199;48.832;9.182;2023-03-13T03:20:25;10.00;99.90
18147;DHT22;9199;48.832;9.182;2023-03-13T03:22:52;9.90;99.90
18147;DHT22;9199;48.832;9.182;2023-03-13T03:25:18;9.80;99.90
18147;DHT22;9199;48.832;9.182;2023-03-13T03:27:45;9.70;99.90
18147;DHT22;9199;48.832;9.182;2023-03-13T03:30:14;9.60;99.90
18147;DHT22;9199;48.832;9.182;2023-03-13T03:32:41;9.60;99.90
18147;DHT22;9199;48.832;9.182;2023-03-13T03:35:08;9.50;99.90
18147;DHT22;9199;48.832;9.182;2023-03-13T03:37:35;9.50;99.90
18147;DHT22;9199;48.832;9.182;2023-03-13T03:40:01;9.40;99.90
18147;DHT22;9199;48.832;9.182;2023-03-13T03:42:30;9.40;99.90
18147;DHT22;9199;48.832;9.182;2023-03-13T03:44:56;9.40;99.90
18147;DHT22;9199;48.832;9.182;2023-03-13T03:47:25;9.40;99.90
18147;DHT22;9199;48.832;9.182;2023-03-13T03:49:52;9.40;99.90
18147;DHT22;9199;48.832;9.182;2023-03-13T03:52:18;9.50;99.90
18147;DHT22;9199;48.832;9.182;2023-03-13T03:54:45;9.60;99.90
18147;DHT22;9199;48.832;9.182;2023-03-13T03:57:12;9.60;99.90
18147;DHT22;9199;48.832;9.182;2023-03-13T03:59:39;9.60;99.90
18147;DHT22;9199;48.832;9.182;2023-03-13T04:02:05;9.70;99.90
18147;DHT22;9199;48.832;9.182;2023-03-13T04:04:33;9.70;99.90
18147;DHT22;9199;48.832;9.182;2023-03-13T04:07:00;9.70;99.90
18147;DHT22;9199;48.832;9.182;2023-03-13T04:09:27;9.70;99.90
18147;DHT22;9199;48.832;9.182;2023-03-13T04:11:54;9.70;99.90
18147;DHT22;9199;48.832;9.182;2023-03-13T04:14:21;9.70;99.90
18147;DHT22;9199;48.832;9.182;2023-03-13T04:16:47;9.80;99.90
18147;DHT22;9199;48.832;9.182;2023-03-13T04:19:14;9.80;99.90
18147;DHT22;9199;48.832;9.182;2023-03-13T04:21:43;9.90;99.90
18147;DHT22;9199;48.832;9.182;2023-03-13T04:24:09;10.10;99.90
18147;DHT22;9199;48.832;9.182;2023-03-13T04:26:36;10.20;99.90
18147;DHT22;9199;48.832;9.182;2023-03-13T04:29:03;10.50;99.90
18147;DHT22;9199;48.832;9.182;2023-03-13T04:31:30;10.60;99.90
18147;DHT22;9199;48.832;9.182;2023-03-13T04:33:58;10.90;99.90
18147;DHT22;9199;48.832;9.182;2023-03-13T04:36:24;11.20;99.90
18147;DHT22;9199;48.832;9.182;2023-03-13T04:38:53;11.40;99.90
18147;DHT22;9199;48.832;9.182;2023-03-13T04:41:19;11.60;99.90
18147;DHT22;9199;48.832;9.182;2023-03-13T04:43:46;11.80;99.90
18147;DHT22;9199;48.832;9.182;2023-03-13T04:46:13;11.90;99.90
18147;DHT22;9199;48.832;9.182;2023-03-13T04:48:39;12.00;99.90
18147;DHT22;9199;48.832;9.182;2023-03-13T04:51:06;12.00;99.90
18147;DHT22;9199;48.832;9.182;2023-03-13T04:53:33;12.10;99.90
18147;DHT22;9199;48.832;9.182;2023-03-13T04:56:01;12.20;99.90
18147;DHT22;9199;48.832;9.182;2023-03-13T04:58:28;12.20;99.90
18147;DHT22;9199;48.832;9.182;2023-03-13T05:00:54;12.30;99.90
18147;DHT22;9199;48.832;9.182;2023-03-13T05:03:21;12.30;99.90
18147;DHT22;9199;48.832;9.182;2023-03-13T05:05:48;12.30;99.90
18147;DHT22;9199;48.832;9.182;2023-03-13T05:08:15;12.30;99.90
18147;DHT22;9199;48.832;9.182;2023-03-13T05:10:42;12.30;99.90
18147;DHT22;9199;48.832;9.182;2023-03-13T05:13:10;12.30;99.90
18147;DHT22;9199;48.832;9.182;2023-03-13T05:15:37;12.30;99.90
18147;DHT22;9199;48.832;9.182;2023-03-13T05:18:03;12.30;99.90
18147;DHT22;9199;48.832;9.182;2023-03-13T05:20:30;12.30;99.90
18147;DHT22;9199;48.832;9.182;2023-03-13T05:22:57;12.30;99.90
18147;DHT22;9199;48.832;9.182;2023-03-13T05:25:23;12.30;99.90
18147;DHT22;9199;48.832;9.182;2023-03-13T05:27:50;12.30;99.90
18147;DHT22;9199;48.832;9.182;2023-03-13T05:30:19;12.30;99.90
18147;DHT22;9199;48.832;9.182;2023-03-13T05:32:45;12.30;99.90
18147;DHT22;9199;48.832;9.182;2023-03-13T05:35:12;12.30;99.90
18147;DHT22;9199;48.832;9.182;2023-03-13T05:37:39;12.30;99.90
18147;DHT22;9199;48.832;9.182;2023-03-13T05:40:07;12.40;99.90
18147;DHT22;9199;48.832;9.182;2023-03-13T05:42:34;12.40;99.90
18147;DHT22;9199;48.832;9.182;2023-03-13T05:45:01;12.40;99.90
18147;DHT22;9199;48.832;9.182;2023-03-13T05:47:29;12.40;99.90
18147;DHT22;9199;48.832;9.182;2023-03-13T05:49:55;12.40;99.90
18147;DHT22;9199;48.832;9.182;2023-03-13T05:52:22;12.40;99.90
18147;DHT22;9199;48.832;9.182;2023-03-13T05:54:49;12.40;99.90
18147;DHT22;9199;48.832;9.182;2023-03-13T05:57:15;12.40;99.90
18147;DHT22;9199;48.832;9.182;2023-03-13T05:59:42;12.30;99.90
18147;DHT22;9199;48.832;9.182;2023-03-13T06:02:09;12.30;99.90
18147;DHT22;9199;48.832;9.182;2023-03-13T06:04:37;12.40;99.90
18147;DHT22;9199;48.832;9.182;2023-03-13T06:07:04;12.40;99.90
18147;DHT22;9199;48.832;9.182;2023-03-13T06:09:31;12.40;99.90
18147;DHT22;9199;48.832;9.182;2023-03-13T06:11:57;12.60;99.90
18147;DHT22;9199;48.832;9.182;2023-03-13T06:14:24;12.50;99.90
18147;DHT22;9199;48.832;9.182;2023-03-13T06:16:53;12.60;99.90
18147;DHT22;9199;48.832;9.182;2023-03-13T06:19:20;12.70;99.90
18147;DHT22;9199;48.832;9.182;2023-03-13T06:21:48;12.70;99.90
18147;DHT22;9199;48.832;9.182;2023-03-13T06:24:15;12.80;99.90
18147;DHT22;9199;48.832;9.182;2023-03-13T06:26:42;12.80;99.90
18147;DHT22;9199;48.832;9.182;2023-03-13T06:29:09;12.90;99.90
18147;DHT22;9199;48.832;9.182;2023-03-13T06:31:36;12.90;99.90
18147;DHT22;9199;48.832;9.182;2023-03-13T06:34:03;13.00;99.90
18147;DHT22;9199;48.832;9.182;2023-03-13T06:36:29;13.00;99.90
18147;DHT22;9199;48.832;9.182;2023-03-13T06:38:58;13.10;99.90
18147;DHT22;9199;48.832;9.182;2023-03-13T06:41:24;13.20;99.90
18147;DHT22;9199;48.832;9.182;2023-03-13T06:43:52;13.20;99.90
18147;DHT22;9199;48.832;9.182;2023-03-13T06:46:20;13.30;99.90
18147;DHT22;9199;48.832;9.182;2023-03-13T06:48:47;13.30;99.90
18147;DHT22;9199;48.832;9.182;2023-03-13T06:51:16;13.30;99.90
18147;DHT22;9199;48.832;9.182;2023-03-13T06:53:42;13.30;99.90
18147;DHT22;9199;48.832;9.182;2023-03-13T06:56:10;13.30;99.90
18147;DHT22;9199;48.832;9.182;2023-03-13T06:58:37;13.30;99.90
18147;DHT22;9199;48.832;9.182;2023-03-13T07:01:08;13.30;99.90
18147;DHT22;9199;48.832;9.182;2023-03-13T07:03:35;13.30;99.90
18147;DHT22;9199;48.832;9.182;2023-03-13T07:06:03;13.30;99.90
18147;DHT22;9199;48.832;9.182;2023-03-13T07:08:31;13.30;99.90
18147;DHT22;9199;48.832;9.182;2023-03-13T07:10:58;13.30;99.90
18147;DHT22;9199;48.832;9.182;2023-03-13T07:13:27;13.40;99.90
18147;DHT22;9199;48.832;9.182;2023-03-13T07:15:54;13.30;99.90
18147;DHT22;9199;48.832;9.182;2023-03-13T07:18:21;13.40;99.90
18147;DHT22;9199;48.832;9.182;2023-03-13T07:20:52;13.40;99.90
18147;DHT22;9199;48.832;9.182;2023-03-13T07:23:19;13.40;99.90
18147;DHT22;9199;48.832;9.182;2023-03-13T07:25:52;13.40;99.90
18147;DHT22;9199;48.832;9.182;2023-03-13T07:28:20;13.40;99.90
18147;DHT22;9199;48.832;9.182;2023-03-13T07:30:48;13.40;99.90
18147;DHT22;9199;48.832;9.182;2023-03-13T07:33:15;13.30;99.90
18147;DHT22;9199;48.832;9.182;2023-03-13T07:35:47;13.40;99.90
18147;DHT22;9199;48.832;9.182;2023-03-13T07:38:14;13.40;99.90
18147;DHT22;9199;48.832;9.182;2023-03-13T07:40:47;13.40;99.90
18147;DHT22;9199;48.832;9.182;2023-03-13T07:43:14;13.40;99.90
18147;DHT22;9199;48.832;9.182;2023-03-13T07:45:53;13.40;99.90
18147;DHT22;9199;48.832;9.182;2023-03-13T07:48:21;13.40;99.90
18147;DHT22;9199;48.832;9.182;2023-03-13T07:50:48;13.50;99.90
18147;DHT22;9199;48.832;9.182;2023-03-13T07:53:15;13.50;99.90
18147;DHT22;9199;48.832;9.182;2023-03-13T07:55:51;13.60;99.90
18147;DHT22;9199;48.832;9.182;2023-03-13T07:58:18;13.60;99.90
18147;DHT22;9199;48.832;9.182;2023-03-13T08:00:45;13.70;99.90
18147;DHT22;9199;48.832;9.182;2023-03-13T08:03:13;13.80;99.90
18147;DHT22;9199;48.832;9.182;2023-03-13T08:05:40;13.90;99.90
18147;DHT22;9199;48.832;9.182;2023-03-13T08:08:06;13.90;99.90
18147;DHT22;9199;48.832;9.182;2023-03-13T08:10:33;13.90;99.90
18147;DHT22;9199;48.832;9.182;2023-03-13T08:13:00;14.00;99.90
18147;DHT22;9199;48.832;9.182;2023-03-13T08:15:27;14.20;99.90
18147;DHT22;9199;48.832;9.182;2023-03-13T08:17:54;14.20;99.90
18147;DHT22;9199;48.832;9.182;2023-03-13T08:20:22;14.40;99.90
18147;DHT22;9199;48.832;9.182;2023-03-13T08:22:49;14.50;99.90
18147;DHT22;9199;48.832;9.182;2023-03-13T08:25:16;14.70;99.90
18147;DHT22;9199;48.832;9.182;2023-03-13T08:27:43;14.80;99.90
18147;DHT22;9199;48.832;9.182;2023-03-13T08:30:10;14.90;99.90
18147;DHT22;9199;48.832;9.182;2023-03-13T08:32:37;15.20;99.90
18147;DHT22;9199;48.832;9.182;2023-03-13T08:35:04;15.30;99.90
18147;DHT22;9199;48.832;9.182;2023-03-13T08:37:32;15.30;99.90
18147;DHT22;9199;48.832;9.182;2023-03-13T08:39:59;15.20;99.90
18147;DHT22;9199;48.832;9.182;2023-03-13T08:42:26;15.20;99.90
18147;DHT22;9199;48.832;9.182;2023-03-13T08:44:52;15.30;99.90
18147;DHT22;9199;48.832;9.182;2023-03-13T08:47:19;15.30;99.90
18147;DHT22;9199;48.832;9.182;2023-03-13T08:49:46;15.30;99.90
18147;DHT22;9199;48.832;9.182;2023-03-13T08:52:12;15.30;99.90
18147;DHT22;9199;48.832;9.182;2023-03-13T08:54:40;15.30;99.90
18147;DHT22;9199;48.832;9.182;2023-03-13T08:57:07;15.40;99.90
18147;DHT22;9199;48.832;9.182;2023-03-13T08:59:34;15.30;99.90
18147;DHT22;9199;48.832;9.182;2023-03-13T09:02:01;15.40;99.90
18147;DHT22;9199;48.832;9.182;2023-03-13T09:04:28;15.40;99.90
18147;DHT22;9199;48.832;9.182;2023-03-13T09:06:55;15.50;99.90
18147;DHT22;9199;48.832;9.182;2023-03-13T09:09:21;15.50;99.90
18147;DHT22;9199;48.832;9.182;2023-03-13T09:11:49;15.50;99.90
18147;DHT22;9199;48.832;9.182;2023-03-13T09:14:16;15.60;99.90
18147;DHT22;9199;48.832;9.182;2023-03-13T09:16:43;15.60;99.90
18147;DHT22;9199;48.832;9.182;2023-03-13T09:19:10;15.60;99.90
18147;DHT22;9199;48.832;9.182;2023-03-13T09:21:37;15.60;99.90
18147;DHT22;9199;48.832;9.182;2023-03-13T09:24:04;15.70;99.90
18147;DHT22;9199;48.832;9.182;2023-03-13T09:26:31;15.70;99.90
18147;DHT22;9199;48.832;9.182;2023-03-13T09:28:59;15.90;99.90
18147;DHT22;9199;48.832;9.182;2023-03-13T09:31:28;16.10;99.90
18147;DHT22;9199;48.832;9.182;2023-03-13T09:33:55;16.30;99.90
18147;DHT22;9199;48.832;9.182;2023-03-13T09:36:22;16.50;99.90
18147;DHT22;9199;48.832;9.182;2023-03-13T09:38:50;16.60;99.90
18147;DHT22;9199;48.832;9.182;2023-03-13T09:41:23;16.60;99.90
18147;DHT22;9199;48.832;9.182;2023-03-13T09:43:55;16.60;99.90
18147;DHT22;9199;48.832;9.182;2023-03-13T09:46:30;16.60;99.90
18147;DHT22;9199;48.832;9.182;2023-03-13T09:48:59;16.60;99.90
18147;DHT22;9199;48.832;9.182;2023-03-13T09:51:31;16.70;99.90
18147;DHT22;9199;48.832;9.182;2023-03-13T09:54:02;16.70;99.90
18147;DHT22;9199;48.832;9.182;2023-03-13T09:56:38;17.00;99.90
18147;DHT22;9199;48.832;9.182;2023-03-13T09:59:12;17.70;99.90
18147;DHT22;9199;48.832;9.182;2023-03-13T10:01:43;18.30;99.90
18147;DHT22;9199;48.832;9.182;2023-03-13T10:04:25;18.60;99.90
18147;DHT22;9199;48.832;9.182;2023-03-13T10:06:54;18.60;99.90
18147;DHT22;9199;48.832;9.182;2023-03-13T10:09:24;18.30;99.90
18147;DHT22;9199;48.832;9.182;2023-03-13T10:11:57;18.40;99.90
18147;DHT22;9199;48.832;9.182;2023-03-13T10:14:30;18.50;99.90
18147;DHT22;9199;48.832;9.182;2023-03-13T10:17:04;18.50;99.90
18147;DHT22;9199;48.832;9.182;2023-03-13T10:19:37;18.80;99.40
18147;DHT22;9199;48.832;9.182;2023-03-13T10:22:11;19.60;98.20
18147;DHT22;9199;48.832;9.182;2023-03-13T10:24:43;20.10;97.30
18147;DHT22;9199;48.832;9.182;2023-03-13T10:27:13;20.90;96.20
18147;DHT22;9199;48.832;9.182;2023-03-13T10:29:40;22.00;94.60
18147;DHT22;9199;48.832;9.182;2023-03-13T10:32:12;23.20;92.20
18147;DHT22;9199;48.832;9.182;2023-03-13T10:34:51;23.80;90.50
18147;DHT22;9199;48.832;9.182;2023-03-13T10:37:21;23.50;89.00
18147;DHT22;9199;48.832;9.182;2023-03-13T10:39:48;22.50;90.00
18147;DHT22;9199;48.832;9.182;2023-03-13T10:42:20;21.50;91.30
18147;DHT22;9199;48.832;9.182;2023-03-13T10:44:48;20.70;92.40
18147;DHT22;9199;48.832;9.182;2023-03-13T10:47:18;20.00;92.80
18147;DHT22;9199;48.832;9.182;2023-03-13T10:49:47;19.30;93.80
18147;DHT22;9199;48.832;9.182;2023-03-13T10:52:29;18.90;94.70
18147;DHT22;9199;48.832;9.182;2023-03-13T10:54:59;18.80;94.80
18147;DHT22;9199;48.832;9.182;2023-03-13T10:57:29;18.70;95.10
18147;DHT22;9199;48.832;9.182;2023-03-13T10:59:56;18.60;95.10
18147;DHT22;9199;48.832;9.182;2023-03-13T11:02:27;18.50;95.20
18147;DHT22;9199;48.832;9.182;2023-03-13T11:04:57;18.70;95.20
18147;DHT22;9199;48.832;9.182;2023-03-13T11:07:29;19.20;94.60
18147;DHT22;9199;48.832;9.182;2023-03-13T11:09:58;19.50;94.40
18147;DHT22;9199;48.832;9.182;2023-03-13T11:12:26;19.30;94.40
18147;DHT22;9199;48.832;9.182;2023-03-13T11:14:57;19.10;94.70
18147;DHT22;9199;48.832;9.182;2023-03-13T11:17:31;18.90;95.10
18147;DHT22;9199;48.832;9.182;2023-03-13T11:20:07;18.80;95.10
18147;DHT22;9199;48.832;9.182;2023-03-13T11:22:52;18.80;95.30
18147;DHT22;9199;48.832;9.182;2023-03-13T11:25:23;18.80;95.30
18147;DHT22;9199;48.832;9.182;2023-03-13T11:28:13;18.70;95.10
18147;DHT22;9199;48.832;9.182;2023-03-13T11:30:55;18.80;95.00
18147;DHT22;9199;48.832;9.182;2023-03-13T11:33:35;19.20;94.80
18147;DHT22;9199;48.832;9.182;2023-03-13T11:36:10;19.90;94.10
18147;DHT22;9199;48.832;9.182;2023-03-13T11:38:41;20.50;92.90
18147;DHT22;9199;48.832;9.182;2023-03-13T11:41:17;21.80;91.80
18147;DHT22;9199;48.832;9.182;2023-03-13T11:44:00;23.20;89.50
18147;DHT22;9199;48.832;9.182;2023-03-13T11:46:38;23.60;87.10
18147;DHT22;9199;48.832;9.182;2023-03-13T11:49:32;23.00;87.30
18147;DHT22;9199;48.832;9.182;2023-03-13T11:52:16;22.80;87.70
18147;DHT22;9199;48.832;9.182;2023-03-13T11:57:49;24.90;82.80
18147;DHT22;9199;48.832;9.182;2023-03-13T12:00:22;26.10;78.50
18147;DHT22;9199;48.832;9.182;2023-03-13T12:02:56;27.20;74.00
18147;DHT22;9199;48.832;9.182;2023-03-13T12:05:27;26.90;71.50
18147;DHT22;9199;48.832;9.182;2023-03-13T12:07:59;26.40;72.00
18147;DHT22;9199;48.832;9.182;2023-03-13T12:10:30;26.10;71.50
18147;DHT22;9199;48.832;9.182;2023-03-13T12:13:03;26.10;72.00
18147;DHT22;9199;48.832;9.182;2023-03-13T12:15:33;26.00;70.40
18147;DHT22;9199;48.832;9.182;2023-03-13T12:18:04;26.40;69.90
18147;DHT22;9199;48.832;9.182;2023-03-13T12:20:42;27.00;68.10
18147;DHT22;9199;48.832;9.182;2023-03-13T12:23:18;26.90;67.60
18147;DHT22;9199;48.832;9.182;2023-03-13T12:25:50;27.50;66.40
18147;DHT22;9199;48.832;9.182;2023-03-13T12:28:26;27.30;65.60
18147;DHT22;9199;48.832;9.182;2023-03-13T12:31:08;27.70;64.50
18147;DHT22;9199;48.832;9.182;2023-03-13T12:33:42;28.30;63.10
18147;DHT22;9199;48.832;9.182;2023-03-13T12:36:12;28.40;61.40
18147;DHT22;9199;48.832;9.182;2023-03-13T12:38:47;27.80;61.50
18147;DHT22;9199;48.832;9.182;2023-03-13T12:41:18;27.50;62.20
18147;DHT22;9199;48.832;9.182;2023-03-13T12:43:48;27.70;61.20
18147;DHT22;9199;48.832;9.182;2023-03-13T12:46:32;28.10;60.60
18147;DHT22;9199;48.832;9.182;2023-03-13T12:49:24;28.60;59.50
18147;DHT22;9199;48.832;9.182;2023-03-13T12:52:08;28.50;58.80
18147;DHT22;9199;48.832;9.182;2023-03-13T12:54:51;28.20;58.60
18147;DHT22;9199;48.832;9.182;2023-03-13T12:57:40;28.20;58.30
18147;DHT22;9199;48.832;9.182;2023-03-13T13:00:15;28.10;58.20
18147;DHT22;9199;48.832;9.182;2023-03-13T13:02:42;28.00;58.60
18147;DHT22;9199;48.832;9.182;2023-03-13T13:05:18;27.70;58.60
18147;DHT22;9199;48.832;9.182;2023-03-13T13:07:53;27.20;58.80
18147;DHT22;9199;48.832;9.182;2023-03-13T13:10:21;27.10;58.50
18147;DHT22;9199;48.832;9.182;2023-03-13T13:13:17;26.90;58.80
18147;DHT22;9199;48.832;9.182;2023-03-13T13:15:45;27.20;58.90
18147;DHT22;9199;48.832;9.182;2023-03-13T13:18:15;27.40;57.20
18147;DHT22;9199;48.832;9.182;2023-03-13T13:21:18;26.80;58.20
18147;DHT22;9199;48.832;9.182;2023-03-13T13:23:48;26.60;58.80
18147;DHT22;9199;48.832;9.182;2023-03-13T13:26:47;26.70;58.30
18147;DHT22;9199;48.832;9.182;2023-03-13T13:32:41;24.70;61.70
18147;DHT22;9199;48.832;9.182;2023-03-13T13:35:26;24.20;63.00
18147;DHT22;9199;48.832;9.182;2023-03-13T13:37:53;24.10;63.00
18147;DHT22;9199;48.832;9.182;2023-03-13T13:40:57;23.70;64.00
18147;DHT22;9199;48.832;9.182;2023-03-13T13:43:24;23.30;65.00
18147;DHT22;9199;48.832;9.182;2023-03-13T13:45:59;23.30;65.20
18147;DHT22;9199;48.832;9.182;2023-03-13T13:48:29;23.20;65.50
18147;DHT22;9199;48.832;9.182;2023-03-13T13:51:31;23.20;65.50
18147;DHT22;9199;48.832;9.182;2023-03-13T13:54:00;23.80;64.40
18147;DHT22;9199;48.832;9.182;2023-03-13T13:56:41;24.40;63.90
18147;DHT22;9199;48.832;9.182;2023-03-13T13:59:38;24.90;63.70
18147;DHT22;9199;48.832;9.182;2023-03-13T14:02:23;25.40;62.00
18147;DHT22;9199;48.832;9.182;2023-03-13T14:04:55;25.30;61.60
18147;DHT22;9199;48.832;9.182;2023-03-13T14:07:29;25.10;61.90
18147;DHT22;9199;48.832;9.182;2023-03-13T14:10:05;25.10;62.90
18147;DHT22;9199;48.832;9.182;2023-03-13T14:12:35;25.30;62.20
18147;DHT22;9199;48.832;9.182;2023-03-13T14:15:07;25.70;61.30
18147;DHT22;9199;48.832;9.182;2023-03-13T14:17:39;26.10;60.80
18147;DHT22;9199;48.832;9.182;2023-03-13T14:20:24;25.90;60.20
18147;DHT22;9199;48.832;9.182;2023-03-13T14:22:53;25.70;60.40
18147;DHT22;9199;48.832;9.182;2023-03-13T14:25:20;25.70;59.80
18147;DHT22;9199;48.832;9.182;2023-03-13T14:27:49;26.30;58.90
18147;DHT22;9199;48.832;9.182;2023-03-13T14:30:18;27.20;57.60
18147;DHT22;9199;48.832;9.182;2023-03-13T14:32:45;27.60;56.80
18147;DHT22;9199;48.832;9.182;2023-03-13T14:35:14;27.80;55.30
18147;DHT22;9199;48.832;9.182;2023-03-13T14:37:43;28.50;54.20
18147;DHT22;9199;48.832;9.182;2023-03-13T14:40:27;28.70;53.50
18147;DHT22;9199;48.832;9.182;2023-03-13T14:42:57;30.00;50.80
18147;DHT22;9199;48.832;9.182;2023-03-13T14:45:27;30.90;49.40
18147;DHT22;9199;48.832;9.182;2023-03-13T14:47:59;31.30;47.80
18147;DHT22;9199;48.832;9.182;2023-03-13T14:50:26;32.10;45.80
18147;DHT22;9199;48.832;9.182;2023-03-13T14:52:56;32.40;44.60
18147;DHT22;9199;48.832;9.182;2023-03-13T14:55:27;32.20;44.00
18147;DHT22;9199;48.832;9.182;2023-03-13T14:57:58;30.70;45.40
18147;DHT22;9199;48.832;9.182;2023-03-13T15:00:34;30.30;46.20
18147;DHT22;9199;48.832;9.182;2023-03-13T15:03:15;31.00;45.60
18147;DHT22;9199;48.832;9.182;2023-03-13T15:05:47;31.10;44.70
18147;DHT22;9199;48.832;9.182;2023-03-13T15:08:15;30.60;45.50
18147;DHT22;9199;48.832;9.182;2023-03-13T15:10:42;30.50;45.30
18147;DHT22;9199;48.832;9.182;2023-03-13T15:13:23;29.90;46.30
18147;DHT22;9199;48.832;9.182;2023-03-13T15:15:51;30.10;45.50
18147;DHT22;9199;48.832;9.182;2023-03-13T15:18:21;30.20;45.50
18147;DHT22;9199;48.832;9.182;2023-03-13T15:20:49;29.70;45.90
18147;DHT22;9199;48.832;9.182;2023-03-13T15:23:16;29.00;47.50
18147;DHT22;9199;48.832;9.182;2023-03-13T15:25:44;29.00;47.40
18147;DHT22;9199;48.832;9.182;2023-03-13T15:28:15;29.60;46.70
18147;DHT22;9199;48.832;9.182;2023-03-13T15:30:44;30.30;45.70
18147;DHT22;9199;48.832;9.182;2023-03-13T15:33:13;30.80;45.00
18147;DHT22;9199;48.832;9.182;2023-03-13T15:35:40;30.90;44.90
18147;DHT22;9199;48.832;9.182;2023-03-13T15:38:11;30.00;45.90
18147;DHT22;9199;48.832;9.182;2023-03-13T15:40:39;29.10;47.30
18147;DHT22;9199;48.832;9.182;2023-03-13T15:43:06;28.10;49.00
18147;DHT22;9199;48.832;9.182;2023-03-13T15:45:34;27.90;49.20
18147;DHT22;9199;48.832;9.182;2023-03-13T15:48:11;27.40;50.10
18147;DHT22;9199;48.832;9.182;2023-03-13T15:50:40;28.00;49.10
18147;DHT22;9199;48.832;9.182;2023-03-13T15:53:15;28.10;49.10
18147;DHT22;9199;48.832;9.182;2023-03-13T15:55:42;27.60;49.90
18147;DHT22;9199;48.832;9.182;2023-03-13T15:58:10;26.60;51.90
18147;DHT22;9199;48.832;9.182;2023-03-13T16:00:38;25.70;53.10
18147;DHT22;9199;48.832;9.182;2023-03-13T16:03:10;25.70;53.40
18147;DHT22;9199;48.832;9.182;2023-03-13T16:05:39;26.60;51.80
18147;DHT22;9199;48.832;9.182;2023-03-13T16:08:05;26.80;51.20
18147;DHT22;9199;48.832;9.182;2023-03-13T16:10:32;26.60;51.50
18147;DHT22;9199;48.832;9.182;2023-03-13T16:12:59;26.70;51.90
18147;DHT22;9199;48.832;9.182;2023-03-13T16:15:27;26.80;51.50